Time;durP1;ratioP1;P1;durP2;ratioP2;P2;SDS_P1;SDS_P2;PMS_P1;PMS_P2;Temp;Humidity;BMP_temperature;BMP_pressure;BME280_temperature;BME280_humidity;BME280_pressure;Samples;Min_cycle;Max_cycle;Signal;HPM_P1;HPM_P2
2023/03/28 00:01:48;;;;;;;18.80;10.73;;;16.70;48.80;;;;;;5057219;28;20947;-84
2023/03/28 00:04:21;;;;;;;17.67;10.20;;;16.70;48.90;;;;;;5050448;28;20457;-84
2023/03/28 00:06:50;;;;;;;18.67;10.70;;;16.70;49.10;;;;;;5050658;28;20481;-84
2023/03/28 00:09:20;;;;;;;17.00;9.77;;;16.70;49.10;;;;;;5049059;28;20457;-84
2023/03/28 00:11:48;;;;;;;21.03;9.70;;;16.70;49.10;;;;;;5054241;28;20455;-85
2023/03/28 00:14:17;;;;;;;16.27;9.60;;;16.70;49.20;;;;;;5048746;28;20519;-83
2023/03/28 00:16:46;;;;;;;15.07;9.23;;;16.70;49.20;;;;;;5055897;28;20459;-85
2023/03/28 00:19:15;;;;;;;16.13;9.27;;;16.70;49.30;;;;;;5052537;28;20474;-83
2023/03/28 00:21:45;;;;;;;13.50;8.87;;;16.70;49.40;;;;;;5054385;28;20450;-83
2023/03/28 00:24:14;;;;;;;16.30;9.30;;;16.70;49.30;;;;;;5052779;28;20457;-83
2023/03/28 00:26:44;;;;;;;16.50;8.97;;;16.70;49.40;;;;;;5046209;28;20464;-84
2023/03/28 00:29:14;;;;;;;12.90;7.93;;;16.70;49.40;;;;;;5053873;28;20581;-82
2023/03/28 00:31:42;;;;;;;17.23;9.33;;;16.70;49.50;;;;;;5051195;28;20509;-83
2023/03/28 00:34:11;;;;;;;14.10;8.10;;;16.70;49.40;;;;;;5049260;28;20490;-83
2023/03/28 00:36:40;;;;;;;13.10;7.53;;;16.60;49.50;;;;;;5049078;28;20454;-83
2023/03/28 00:39:09;;;;;;;14.33;8.30;;;16.60;49.50;;;;;;5048124;28;20470;-83
2023/03/28 00:41:38;;;;;;;14.60;7.83;;;16.60;49.50;;;;;;5050713;28;20840;-83
2023/03/28 00:44:41;;;;;;;14.93;7.60;;;16.60;49.50;;;;;;5048993;28;20518;-83
2023/03/28 00:47:15;;;;;;;10.13;7.00;;;16.60;49.60;;;;;;5047448;28;21167;-83
2023/03/28 00:49:45;;;;;;;14.43;7.20;;;16.60;49.60;;;;;;5052414;28;20474;-83
2023/03/28 00:52:14;;;;;;;15.40;7.33;;;16.50;49.60;;;;;;5050709;28;20459;-83
2023/03/28 00:54:42;;;;;;;10.50;6.20;;;16.50;49.60;;;;;;5050119;28;20457;-83
2023/03/28 00:57:10;;;;;;;8.80;5.93;;;16.60;49.80;;;;;;5048059;28;20493;-83
2023/03/28 00:59:38;;;;;;;11.80;6.33;;;16.50;49.60;;;;;;5046732;28;20470;-83
2023/03/28 01:02:08;;;;;;;9.30;5.50;;;16.50;49.60;;;;;;5047893;28;20457;-82
2023/03/28 01:04:38;;;;;;;11.23;6.33;;;16.50;49.70;;;;;;5052435;28;20460;-83
2023/03/28 01:07:06;;;;;;;9.67;6.10;;;16.50;49.60;;;;;;5048933;28;20480;-83
2023/03/28 01:09:34;;;;;;;12.00;6.50;;;16.50;49.60;;;;;;5043878;28;20457;-83
2023/03/28 01:12:02;;;;;;;9.83;5.80;;;16.50;49.70;;;;;;5045909;28;20518;-83
2023/03/28 01:14:31;;;;;;;11.20;6.03;;;16.40;49.60;;;;;;5049663;28;20446;-84
2023/03/28 01:16:59;;;;;;;7.43;5.10;;;16.40;49.70;;;;;;5050948;28;20470;-84
2023/03/28 01:19:35;;;;;;;8.67;5.63;;;16.50;49.80;;;;;;5049606;28;20470;-83
2023/03/28 01:22:20;;;;;;;10.37;5.63;;;16.40;49.70;;;;;;5045840;28;20466;-84
2023/03/28 01:25:39;;;;;;;7.43;5.03;;;16.40;49.70;;;;;;5046084;28;20455;-83
2023/03/28 01:28:10;;;;;;;12.20;6.27;;;16.40;49.80;;;;;;4986502;28;21033;-83
2023/03/28 01:31:04;;;;;;;7.80;4.80;;;16.40;49.90;;;;;;4989677;28;20449;-83
2023/03/28 01:33:57;;;;;;;7.37;5.40;;;16.40;49.90;;;;;;5036058;28;20549;-84
2023/03/28 01:37:06;;;;;;;7.97;4.93;;;16.40;49.90;;;;;;5044555;28;20446;-83
2023/03/28 01:39:41;;;;;;;8.43;5.07;;;16.40;50.00;;;;;;5044754;28;20470;-83
2023/03/28 01:42:13;;;;;;;7.10;4.83;;;16.40;50.00;;;;;;5050038;28;20465;-81
2023/03/28 01:44:44;;;;;;;9.43;4.50;;;16.40;50.10;;;;;;5039968;28;20454;-81
2023/03/28 01:47:15;;;;;;;7.03;4.40;;;16.40;50.10;;;;;;5046593;28;20479;-82
2023/03/28 01:49:46;;;;;;;5.67;4.00;;;16.40;50.20;;;;;;5045759;28;20451;-82
2023/03/28 01:52:17;;;;;;;7.80;4.50;;;16.40;50.10;;;;;;5047120;28;20458;-83
2023/03/28 01:54:50;;;;;;;6.67;4.00;;;16.40;50.20;;;;;;5052516;28;20557;-82
2023/03/28 01:57:21;;;;;;;6.37;4.00;;;16.40;50.20;;;;;;5044140;28;20473;-82
2023/03/28 01:59:50;;;;;;;5.20;4.37;;;16.40;50.20;;;;;;5044497;28;20466;-82
2023/03/28 02:02:21;;;;;;;6.50;4.30;;;16.30;50.10;;;;;;5055466;28;20446;-82
2023/03/28 02:04:49;;;;;;;6.67;4.53;;;16.40;50.30;;;;;;5051688;28;20452;-82
2023/03/28 02:07:19;;;;;;;5.57;4.10;;;16.30;50.20;;;;;;5049956;28;20505;-82
2023/03/28 02:09:47;;;;;;;6.00;3.83;;;16.30;50.30;;;;;;5049480;28;20515;-82
2023/03/28 02:12:16;;;;;;;5.53;3.73;;;16.30;50.30;;;;;;5052362;28;20456;-83
2023/03/28 02:14:44;;;;;;;7.37;3.60;;;16.30;50.20;;;;;;5050968;28;20452;-82
2023/03/28 02:17:14;;;;;;;4.40;3.33;;;16.30;50.30;;;;;;5047307;28;20480;-81
2023/03/28 02:19:45;;;;;;;5.33;3.47;;;16.30;50.20;;;;;;5045949;28;20470;-82
2023/03/28 02:22:17;;;;;;;6.10;3.40;;;16.30;50.20;;;;;;5055063;28;20454;-82
2023/03/28 02:24:50;;;;;;;5.17;3.13;;;16.20;50.20;;;;;;5054414;28;20553;-82
2023/03/28 02:27:19;;;;;;;6.37;3.30;;;16.30;50.10;;;;;;5051736;28;20482;-82
2023/03/28 02:29:48;;;;;;;5.03;3.10;;;16.20;50.10;;;;;;5052058;28;20438;-85
2023/03/28 02:32:16;;;;;;;5.10;3.47;;;16.20;50.10;;;;;;5065357;28;20454;-82
2023/03/28 02:34:44;;;;;;;6.40;3.20;;;16.20;50.00;;;;;;5050303;28;20484;-80
2023/03/28 02:37:17;;;;;;;7.13;4.00;;;16.20;50.10;;;;;;5050270;28;20478;-83
2023/03/28 02:39:49;;;;;;;4.70;3.00;;;16.10;50.00;;;;;;5049001;28;20500;-83
2023/03/28 02:42:48;;;;;;;4.43;2.80;;;16.10;49.80;;;;;;5049156;28;20455;-82
2023/03/28 02:45:22;;;;;;;4.27;3.00;;;16.10;50.00;;;;;;5045278;28;20442;-81
2023/03/28 02:47:56;;;;;;;3.00;2.47;;;16.00;50.00;;;;;;5043973;28;20479;-82
2023/03/28 02:50:26;;;;;;;3.37;2.60;;;16.00;50.10;;;;;;5044351;28;20538;-82
2023/03/28 02:52:55;;;;;;;4.67;3.07;;;16.00;50.00;;;;;;5048955;28;20447;-82
2023/03/28 02:55:27;;;;;;;2.83;2.63;;;16.00;50.00;;;;;;5048118;28;20475;-82
2023/03/28 02:57:57;;;;;;;3.77;2.73;;;16.00;50.10;;;;;;5051572;28;20473;-82
2023/03/28 03:00:25;;;;;;;4.00;2.60;;;16.00;50.10;;;;;;5049566;28;20562;-83
2023/03/28 03:02:53;;;;;;;6.33;2.73;;;16.00;50.00;;;;;;5052391;28;20456;-83
2023/03/28 03:05:21;;;;;;;5.50;3.23;;;16.00;50.00;;;;;;5053903;28;20470;-82
2023/03/28 03:07:50;;;;;;;2.90;2.40;;;16.00;50.00;;;;;;5050973;28;20471;-82
2023/03/28 03:10:20;;;;;;;4.23;2.60;;;16.00;50.00;;;;;;5051334;28;20456;-83
2023/03/28 03:12:50;;;;;;;3.77;2.70;;;15.90;49.80;;;;;;5046863;28;20454;-84
2023/03/28 03:15:18;;;;;;;3.83;2.77;;;15.90;49.90;;;;;;5052470;28;20454;-84
2023/03/28 03:17:46;;;;;;;4.60;2.93;;;15.90;49.80;;;;;;5050135;28;20466;-84
2023/03/28 03:20:14;;;;;;;4.90;2.77;;;15.90;49.90;;;;;;5048422;28;20532;-83
2023/03/28 03:22:42;;;;;;;2.67;2.13;;;15.90;50.00;;;;;;5047799;28;20454;-83
2023/03/28 03:25:12;;;;;;;4.67;2.27;;;15.80;49.90;;;;;;5052734;28;20455;-82
2023/03/28 03:27:41;;;;;;;3.93;2.63;;;15.80;49.90;;;;;;5043298;28;20527;-82
2023/03/28 03:30:12;;;;;;;6.50;2.33;;;15.80;49.90;;;;;;5048034;28;20460;-81
2023/03/28 03:32:42;;;;;;;3.10;2.20;;;15.80;49.90;;;;;;5046288;28;20473;-81
2023/03/28 03:35:10;;;;;;;3.17;2.13;;;15.80;49.80;;;;;;5053788;28;20483;-83
2023/03/28 03:37:38;;;;;;;3.67;2.27;;;15.80;49.90;;;;;;5052526;28;20470;-82
2023/03/28 03:40:08;;;;;;;2.63;2.37;;;15.80;50.00;;;;;;5054135;28;20583;-83
2023/03/28 03:42:37;;;;;;;5.00;2.20;;;15.80;49.90;;;;;;5055894;28;20459;-83
2023/03/28 03:45:06;;;;;;;4.03;2.17;;;15.80;49.90;;;;;;5056011;28;20461;-83
2023/03/28 03:47:36;;;;;;;3.20;2.10;;;15.80;50.00;;;;;;5055040;28;20482;-83
2023/03/28 03:50:04;;;;;;;4.20;2.03;;;15.80;50.00;;;;;;5047787;28;20449;-82
2023/03/28 03:52:33;;;;;;;2.40;2.20;;;15.80;49.90;;;;;;5050078;28;20484;-84
2023/03/28 03:55:01;;;;;;;2.53;2.30;;;15.80;50.00;;;;;;5049772;28;20489;-84
2023/03/28 03:57:29;;;;;;;4.70;2.20;;;15.80;50.00;;;;;;5048755;28;20471;-83
2023/03/28 03:59:57;;;;;;;3.63;2.20;;;15.80;49.90;;;;;;5049526;28;20528;-83
2023/03/28 04:02:26;;;;;;;2.20;1.90;;;15.80;49.80;;;;;;5049656;28;20461;-83
2023/03/28 04:04:55;;;;;;;3.23;1.80;;;15.80;50.00;;;;;;5050597;28;21018;-83
2023/03/28 04:07:24;;;;;;;2.43;2.13;;;15.80;50.00;;;;;;5061050;28;20470;-82
2023/03/28 04:09:53;;;;;;;5.53;2.27;;;15.80;50.00;;;;;;5062616;28;20462;-83
2023/03/28 04:12:21;;;;;;;3.43;2.07;;;15.70;49.90;;;;;;5060720;28;20459;-82
2023/03/28 04:14:50;;;;;;;4.00;2.03;;;15.70;50.00;;;;;;5066069;28;20459;-83
2023/03/28 04:17:22;;;;;;;2.13;1.80;;;15.70;50.00;;;;;;5064028;28;20500;-82
2023/03/28 04:19:50;;;;;;;5.50;1.80;;;15.70;49.90;;;;;;5064313;28;20485;-84
2023/03/28 04:22:21;;;;;;;2.03;1.83;;;15.70;50.10;;;;;;5061354;28;20477;-83
2023/03/28 04:24:52;;;;;;;3.13;2.13;;;15.60;49.90;;;;;;5063510;28;20458;-82
2023/03/28 04:27:25;;;;;;;4.03;2.30;;;15.60;50.00;;;;;;5061211;28;21059;-84
2023/03/28 04:29:53;;;;;;;3.93;2.00;;;15.60;50.00;;;;;;5055730;28;20454;-82
2023/03/28 04:32:23;;;;;;;2.93;1.80;;;15.60;50.00;;;;;;5059251;28;20478;-83
2023/03/28 04:34:51;;;;;;;3.80;1.60;;;15.60;50.00;;;;;;5061187;28;20520;-82
2023/03/28 04:37:21;;;;;;;2.80;1.87;;;15.50;49.90;;;;;;5058708;28;20500;-83
2023/03/28 04:39:52;;;;;;;2.50;1.90;;;15.50;49.80;;;;;;5054460;28;20461;-84
2023/03/28 04:42:21;;;;;;;6.40;2.10;;;15.50;49.90;;;;;;5049292;28;20509;-83
2023/03/28 04:44:49;;;;;;;5.50;2.27;;;15.50;50.00;;;;;;5051907;28;20461;-83
2023/03/28 04:47:17;;;;;;;1.87;1.30;;;15.50;49.90;;;;;;5053979;28;20501;-83
2023/03/28 04:49:47;;;;;;;3.03;1.60;;;15.50;49.70;;;;;;5049834;28;20451;-83
2023/03/28 04:52:15;;;;;;;2.23;2.03;;;15.50;49.70;;;;;;5053623;28;20518;-83
2023/03/28 04:54:45;;;;;;;3.13;1.70;;;15.50;49.70;;;;;;5048020;28;20460;-83
2023/03/28 04:57:13;;;;;;;2.33;1.50;;;15.50;49.60;;;;;;5046656;28;20566;-83
2023/03/28 04:59:41;;;;;;;2.37;1.57;;;15.40;49.60;;;;;;5049527;28;20466;-83
2023/03/28 05:02:09;;;;;;;5.03;1.80;;;15.40;49.50;;;;;;5047595;28;20481;-83
2023/03/28 05:04:38;;;;;;;4.80;1.80;;;15.40;49.80;;;;;;5052393;28;20532;-83
2023/03/28 05:07:06;;;;;;;2.10;1.37;;;15.40;49.80;;;;;;5048687;28;20474;-83
2023/03/28 05:09:35;;;;;;;8.10;1.50;;;15.40;49.70;;;;;;5048684;28;20454;-83
2023/03/28 05:12:04;;;;;;;2.20;1.50;;;15.40;49.70;;;;;;5041945;28;20454;-84
2023/03/28 05:14:32;;;;;;;2.17;1.50;;;15.40;49.70;;;;;;5045823;28;20466;-84
2023/03/28 05:17:00;;;;;;;2.17;1.87;;;15.40;49.70;;;;;;5048394;28;20474;-83
2023/03/28 05:19:28;;;;;;;1.60;1.50;;;15.40;49.90;;;;;;5050520;28;20450;-83
2023/03/28 05:21:56;;;;;;;2.60;1.60;;;15.40;49.70;;;;;;5048527;28;20462;-84
2023/03/28 05:24:24;;;;;;;2.73;1.70;;;15.30;49.50;;;;;;5050924;28;20458;-83
2023/03/28 05:26:52;;;;;;;3.37;1.70;;;15.30;49.60;;;;;;5047120;28;20524;-82
2023/03/28 05:29:22;;;;;;;3.27;1.50;;;15.30;49.50;;;;;;5049828;28;20454;-82
2023/03/28 05:31:50;;;;;;;2.00;1.50;;;15.30;49.50;;;;;;5045951;28;20538;-83
2023/03/28 05:34:18;;;;;;;3.20;1.37;;;15.30;49.60;;;;;;5051028;28;20461;-83
2023/03/28 05:36:46;;;;;;;2.03;1.40;;;15.30;49.50;;;;;;5056374;28;20492;-84
2023/03/28 05:39:14;;;;;;;1.20;1.10;;;15.30;50.20;;;;;;5061548;28;20514;-83
2023/03/28 05:41:42;;;;;;;2.80;1.63;;;15.30;49.50;;;;;;5064337;28;20927;-82
2023/03/28 05:44:10;;;;;;;1.80;1.10;;;15.30;49.50;;;;;;5057400;28;20454;-82
2023/03/28 05:46:39;;;;;;;5.70;1.70;;;15.30;49.50;;;;;;5057240;28;20454;-83
2023/03/28 05:49:08;;;;;;;2.70;1.40;;;15.30;49.50;;;;;;5055808;28;20488;-82
2023/03/28 05:51:38;;;;;;;3.50;1.50;;;15.30;49.50;;;;;;5056001;28;20438;-83
2023/03/28 05:54:06;;;;;;;2.70;1.30;;;15.30;49.60;;;;;;5056274;28;20463;-82
2023/03/28 05:56:34;;;;;;;1.83;1.40;;;15.30;49.60;;;;;;5053290;28;20456;-81
2023/03/28 05:59:02;;;;;;;4.80;1.70;;;15.20;49.40;;;;;;5051509;28;20459;-82
2023/03/28 06:01:30;;;;;;;1.93;1.37;;;15.30;49.60;;;;;;5049924;28;20470;-82
2023/03/28 06:04:00;;;;;;;2.20;1.33;;;15.30;49.50;;;;;;5052242;28;20464;-82
2023/03/28 06:06:28;;;;;;;2.27;1.40;;;15.30;49.40;;;;;;5047804;28;20462;-82
2023/03/28 06:08:56;;;;;;;1.27;1.17;;;15.30;49.60;;;;;;5045517;28;21013;-82
2023/03/28 06:11:25;;;;;;;2.77;1.40;;;15.30;49.50;;;;;;5049725;28;20447;-81
2023/03/28 06:13:53;;;;;;;4.57;1.60;;;15.30;49.60;;;;;;5052230;28;20453;-82
2023/03/28 06:16:21;;;;;;;2.30;1.40;;;15.40;49.50;;;;;;5049696;28;20482;-82
2023/03/28 06:18:59;;;;;;;2.10;1.10;;;15.40;49.50;;;;;;5060111;28;20481;-82
2023/03/28 06:21:43;;;;;;;3.97;1.47;;;15.40;49.50;;;;;;5048725;28;20467;-82
2023/03/28 06:24:12;;;;;;;3.50;1.57;;;15.40;49.60;;;;;;5056946;28;20481;-82
2023/03/28 06:26:40;;;;;;;2.47;1.73;;;15.40;49.60;;;;;;5055678;28;20482;-82
2023/03/28 06:29:08;;;;;;;2.33;1.47;;;15.50;49.70;;;;;;5052137;28;20454;-82
2023/03/28 06:31:36;;;;;;;2.33;1.33;;;15.50;49.60;;;;;;5047058;28;20453;-82
2023/03/28 06:34:05;;;;;;;3.23;1.70;;;15.50;49.70;;;;;;5054600;28;20516;-82
2023/03/28 06:36:34;;;;;;;2.30;1.30;;;15.50;49.90;;;;;;5051516;28;20442;-82
2023/03/28 06:39:02;;;;;;;4.00;1.70;;;15.50;49.70;;;;;;5048706;28;20442;-82
2023/03/28 06:41:30;;;;;;;2.10;1.30;;;15.50;49.80;;;;;;5042227;28;20482;-81
2023/03/28 06:43:58;;;;;;;1.40;1.30;;;15.60;50.00;;;;;;5049721;28;20545;-82
2023/03/28 06:46:26;;;;;;;1.67;1.30;;;15.60;50.00;;;;;;5054891;28;20456;-82
2023/03/28 06:48:56;;;;;;;2.73;1.70;;;15.60;49.90;;;;;;5049871;28;20487;-82
2023/03/28 06:51:26;;;;;;;2.90;1.70;;;15.60;50.00;;;;;;5054734;28;20459;-82
2023/03/28 06:53:54;;;;;;;2.57;1.50;;;15.70;50.10;;;;;;5046581;28;20465;-82
2023/03/28 06:56:22;;;;;;;3.13;1.20;;;15.70;50.10;;;;;;5049245;28;20482;-82
2023/03/28 06:58:50;;;;;;;1.50;1.40;;;15.80;50.20;;;;;;5054175;28;20471;-82
2023/03/28 07:01:18;;;;;;;3.27;1.70;;;15.80;50.30;;;;;;5051527;28;20534;-82
2023/03/28 07:03:47;;;;;;;2.13;1.17;;;15.90;50.30;;;;;;5053379;28;20478;-82
2023/03/28 07:06:19;;;;;;;1.97;1.30;;;16.00;50.40;;;;;;5044277;28;20542;-81
2023/03/28 07:08:48;;;;;;;1.97;1.50;;;16.00;50.30;;;;;;5051284;28;20558;-82
2023/03/28 07:11:16;;;;;;;2.80;1.60;;;16.00;50.40;;;;;;5047797;28;20530;-82
2023/03/28 07:13:44;;;;;;;2.13;1.43;;;16.00;50.50;;;;;;5050771;28;20447;-82
2023/03/28 07:16:13;;;;;;;1.30;1.20;;;16.10;50.60;;;;;;5049197;28;20513;-82
2023/03/28 07:18:41;;;;;;;3.77;1.77;;;16.10;50.70;;;;;;5054102;28;20566;-82
2023/03/28 07:21:10;;;;;;;4.13;1.87;;;16.10;50.70;;;;;;5047658;28;20459;-82
2023/03/28 07:23:39;;;;;;;2.93;1.40;;;16.20;51.00;;;;;;5048352;28;20471;-82
2023/03/28 07:26:09;;;;;;;4.20;1.40;;;16.20;50.90;;;;;;5051131;28;20459;-82
2023/03/28 07:28:38;;;;;;;1.30;1.10;;;16.30;50.90;;;;;;5050046;28;20475;-82
2023/03/28 07:31:07;;;;;;;1.93;1.60;;;16.40;51.00;;;;;;5053588;28;20497;-82
2023/03/28 07:33:35;;;;;;;3.47;1.70;;;16.40;50.90;;;;;;5051278;28;20451;-82
2023/03/28 07:36:09;;;;;;;4.10;1.97;;;16.50;51.00;;;;;;5049101;28;20459;-82
2023/03/28 07:38:38;;;;;;;2.70;1.73;;;16.50;51.00;;;;;;5047202;28;20471;-82
2023/03/28 07:41:08;;;;;;;2.10;1.63;;;16.50;51.00;;;;;;5046967;28;20539;-82
2023/03/28 07:43:38;;;;;;;3.30;1.80;;;16.60;51.10;;;;;;5051485;28;20474;-82
2023/03/28 07:46:07;;;;;;;2.27;2.00;;;16.60;51.00;;;;;;5052858;28;20451;-82
2023/03/28 07:48:36;;;;;;;4.40;1.87;;;16.60;51.10;;;;;;5047492;28;20490;-82
2023/03/28 07:51:05;;;;;;;2.43;1.80;;;16.60;51.20;;;;;;5049513;28;20466;-82
2023/03/28 07:53:33;;;;;;;2.37;2.10;;;16.70;51.40;;;;;;5047326;28;20461;-83
2023/03/28 07:56:01;;;;;;;5.97;2.60;;;16.70;51.50;;;;;;5054193;28;20455;-83
2023/03/28 07:58:31;;;;;;;4.93;2.30;;;16.80;51.50;;;;;;5052458;28;20475;-82
2023/03/28 08:01:04;;;;;;;2.47;2.27;;;16.80;51.40;;;;;;5052169;28;20851;-82
2023/03/28 08:03:33;;;;;;;3.10;2.50;;;16.90;51.40;;;;;;5051293;28;21094;-82
2023/03/28 08:06:02;;;;;;;3.03;2.13;;;16.90;51.50;;;;;;5052716;28;20454;-82
2023/03/28 08:08:30;;;;;;;3.20;2.13;;;16.90;51.70;;;;;;5046563;28;20466;-82
2023/03/28 08:10:58;;;;;;;4.63;2.37;;;16.90;51.70;;;;;;5048667;28;20543;-83
2023/03/28 08:13:27;;;;;;;6.00;2.63;;;17.00;51.80;;;;;;5047678;28;20522;-84
2023/03/28 08:15:57;;;;;;;6.23;2.40;;;17.10;52.00;;;;;;5051259;28;20460;-81
2023/03/28 08:18:25;;;;;;;2.87;2.33;;;17.20;52.10;;;;;;5051967;28;20503;-81
2023/03/28 08:20:57;;;;;;;13.27;4.80;;;17.40;52.20;;;;;;5049660;28;20523;-80
2023/03/28 08:23:26;;;;;;;11.00;4.27;;;16.70;44.80;;;;;;5051788;28;20470;-80
2023/03/28 08:26:01;;;;;;;11.80;3.00;;;14.50;43.10;;;;;;5051913;28;20454;-80
2023/03/28 08:28:29;;;;;;;8.00;3.67;;;13.00;43.70;;;;;;5041260;28;20566;-80
2023/03/28 08:30:59;;;;;;;9.73;2.60;;;12.60;48.00;;;;;;5046306;28;20450;-80
2023/03/28 08:33:27;;;;;;;9.77;2.90;;;11.80;44.70;;;;;;5051572;28;20447;-79
2023/03/28 08:35:56;;;;;;;8.73;2.57;;;12.10;46.40;;;;;;5053071;28;20450;-80
2023/03/28 08:38:23;;;;;;;8.43;2.30;;;12.20;44.80;;;;;;5050856;28;20470;-79
2023/03/28 08:41:14;;;;;;;10.20;3.00;;;12.90;46.20;;;;;;5056071;28;20450;-79
2023/03/28 08:44:09;;;;;;;7.83;2.23;;;12.70;44.00;;;;;;5058906;28;21008;-81
2023/03/28 08:46:39;;;;;;;6.80;2.30;;;13.80;48.70;;;;;;5041861;28;20488;-80
2023/03/28 08:49:10;;;;;;;12.30;2.70;;;15.10;47.10;;;;;;5047315;28;20493;-81
2023/03/28 08:51:42;;;;;;;5.13;2.20;;;16.00;46.20;;;;;;5050289;28;20458;-81
2023/03/28 08:54:14;;;;;;;6.30;2.33;;;16.70;45.50;;;;;;5052735;28;20473;-81
2023/03/28 08:56:46;;;;;;;8.93;2.73;;;17.10;45.20;;;;;;5053168;28;20454;-82
2023/03/28 08:59:15;;;;;;;3.23;1.90;;;17.70;45.50;;;;;;5049231;28;20450;-83
2023/03/28 09:01:45;;;;;;;4.67;2.00;;;18.20;45.70;;;;;;5050573;28;20537;-79
2023/03/28 09:04:22;;;;;;;4.40;2.10;;;18.60;45.90;;;;;;5052118;28;20470;-83
2023/03/28 09:06:51;;;;;;;6.23;2.50;;;19.10;46.30;;;;;;5051697;28;20446;-79
2023/03/28 09:09:26;;;;;;;6.90;2.50;;;19.40;46.60;;;;;;5048263;28;20546;-82
2023/03/28 09:12:02;;;;;;;7.07;2.70;;;19.80;46.90;;;;;;5052381;28;20455;-80
2023/03/28 09:14:54;;;;;;;7.20;2.70;;;20.00;46.80;;;;;;5050152;28;20552;-82
2023/03/28 09:17:27;;;;;;;5.90;2.40;;;20.30;47.00;;;;;;5054570;28;20470;-81
2023/03/28 09:20:10;;;;;;;6.77;2.80;;;20.50;47.00;;;;;;5054572;28;20527;-77
2023/03/28 09:22:44;;;;;;;7.30;2.20;;;20.70;46.40;;;;;;5049442;28;20469;-77
2023/03/28 09:25:19;;;;;;;9.10;2.67;;;21.10;45.80;;;;;;5051007;28;20904;-78
2023/03/28 09:27:51;;;;;;;8.80;2.70;;;21.70;44.40;;;;;;5050953;28;20482;-76
2023/03/28 09:30:22;;;;;;;7.27;2.90;;;22.10;43.80;;;;;;5045007;28;20440;-78
2023/03/28 09:32:54;;;;;;;7.50;2.60;;;22.40;43.20;;;;;;5045484;28;20458;-78
2023/03/28 09:35:22;;;;;;;10.10;2.90;;;22.80;43.80;;;;;;5048631;28;20511;-77
2023/03/28 09:37:52;;;;;;;13.40;3.57;;;23.10;45.00;;;;;;5047867;28;20470;-76
2023/03/28 09:40:21;;;;;;;9.73;3.00;;;23.40;45.80;;;;;;5044845;28;20450;-78
2023/03/28 09:42:55;;;;;;;6.33;2.90;;;23.40;45.50;;;;;;5047438;28;20493;-78
2023/03/28 09:45:31;;;;;;;6.70;2.53;;;23.40;45.40;;;;;;5045171;28;20421;-79
2023/03/28 09:48:00;;;;;;;5.27;2.80;;;23.50;45.40;;;;;;5043754;28;20470;-77
2023/03/28 09:50:28;;;;;;;9.97;3.37;;;23.60;45.80;;;;;;5046708;28;20454;-77
2023/03/28 09:52:56;;;;;;;16.23;3.10;;;23.80;45.90;;;;;;5044687;28;20455;-77
2023/03/28 09:55:25;;;;;;;20.47;2.97;;;24.00;46.00;;;;;;5045711;28;20446;-78
2023/03/28 09:58:06;;;;;;;10.27;3.00;;;24.00;45.40;;;;;;5047378;28;20440;-78
2023/03/28 10:00:36;;;;;;;7.37;2.70;;;23.90;45.50;;;;;;5046485;28;20529;-78
2023/03/28 10:03:06;;;;;;;5.77;2.67;;;24.10;46.10;;;;;;5047368;28;20443;-77
2023/03/28 10:05:36;;;;;;;7.20;2.43;;;24.30;45.80;;;;;;5054073;28;20454;-81
2023/03/28 10:08:05;;;;;;;5.40;2.60;;;24.30;45.10;;;;;;5051337;28;20470;-78
2023/03/28 10:10:33;;;;;;;7.97;2.63;;;24.10;45.00;;;;;;5042293;28;20462;-78
2023/03/28 10:13:04;;;;;;;6.70;2.43;;;24.00;44.60;;;;;;5045874;28;20469;-77
2023/03/28 10:15:34;;;;;;;11.33;2.70;;;23.90;44.20;;;;;;5048575;28;20451;-75
2023/03/28 10:18:03;;;;;;;8.60;3.17;;;24.10;45.00;;;;;;5042765;28;20599;-77
2023/03/28 10:20:35;;;;;;;7.60;2.53;;;24.10;44.80;;;;;;5045960;28;20550;-76
2023/03/28 10:23:03;;;;;;;7.60;2.63;;;24.00;44.90;;;;;;5047124;28;20454;-77
2023/03/28 10:25:35;;;;;;;8.13;2.67;;;23.90;45.20;;;;;;5050410;28;20449;-75
2023/03/28 10:28:04;;;;;;;11.70;3.10;;;23.80;45.50;;;;;;5050934;28;20466;-78
2023/03/28 10:30:33;;;;;;;15.53;2.87;;;23.80;45.80;;;;;;5047711;28;20430;-75
2023/03/28 10:33:09;;;;;;;8.83;2.70;;;23.80;45.80;;;;;;5052713;28;20456;-75
2023/03/28 10:35:40;;;;;;;11.83;2.83;;;23.80;46.20;;;;;;5051074;28;20450;-76
2023/03/28 10:38:16;;;;;;;7.00;2.43;;;23.80;46.60;;;;;;5045287;28;20470;-75
2023/03/28 10:40:50;;;;;;;10.87;2.60;;;23.70;45.90;;;;;;5053680;28;20454;-80
2023/03/28 10:43:18;;;;;;;5.33;2.30;;;23.60;45.50;;;;;;5046078;28;20425;-80
2023/03/28 10:45:49;;;;;;;12.70;2.77;;;23.50;45.30;;;;;;5049533;28;20471;-78
2023/03/28 10:48:20;;;;;;;9.60;2.80;;;23.30;45.30;;;;;;5054742;28;20584;-80
2023/03/28 10:50:51;;;;;;;11.30;3.10;;;23.20;45.60;;;;;;5056137;28;20461;-80
2023/03/28 10:53:32;;;;;;;12.20;2.77;;;23.00;45.50;;;;;;5055986;28;20446;-79
2023/03/28 10:56:06;;;;;;;10.83;2.80;;;22.90;45.80;;;;;;5055566;28;20425;-80
2023/03/28 10:58:36;;;;;;;12.40;2.80;;;22.70;45.90;;;;;;5055285;28;20441;-80
2023/03/28 11:01:06;;;;;;;9.10;2.90;;;22.60;46.10;;;;;;5050558;28;20453;-81
2023/03/28 11:03:40;;;;;;;13.40;2.80;;;22.50;46.10;;;;;;5052245;28;20456;-80
2023/03/28 11:06:12;;;;;;;6.00;2.47;;;22.50;46.10;;;;;;5052429;28;20853;-81
2023/03/28 11:08:45;;;;;;;4.67;2.70;;;22.50;46.10;;;;;;5052062;28;20471;-82
2023/03/28 11:11:22;;;;;;;14.63;2.87;;;22.50;46.20;;;;;;5054110;28;20441;-80
2023/03/28 11:13:53;;;;;;;8.47;3.00;;;22.50;46.00;;;;;;5047490;28;20465;-82
2023/03/28 11:16:24;;;;;;;10.70;3.00;;;22.50;45.80;;;;;;5049285;28;20461;-83
2023/03/28 11:19:01;;;;;;;6.80;3.00;;;22.50;45.80;;;;;;5045710;28;20466;-82
2023/03/28 11:21:32;;;;;;;5.30;2.70;;;22.40;45.70;;;;;;5052906;28;20465;-81
2023/03/28 11:24:06;;;;;;;9.23;2.93;;;22.30;45.70;;;;;;5047926;28;20891;-81
2023/03/28 11:26:38;;;;;;;12.50;2.90;;;22.30;45.80;;;;;;5052865;28;20462;-80
2023/03/28 11:29:15;;;;;;;6.07;2.43;;;22.20;45.90;;;;;;5046480;28;20452;-82
2023/03/28 11:31:45;;;;;;;5.77;2.43;;;22.20;46.00;;;;;;5046432;28;20458;-78
2023/03/28 11:34:14;;;;;;;7.03;2.60;;;22.10;45.90;;;;;;5045987;28;20478;-81
2023/03/28 11:36:48;;;;;;;6.70;2.67;;;22.20;46.10;;;;;;5048314;28;20459;-82
2023/03/28 11:39:19;;;;;;;6.10;2.30;;;22.30;45.60;;;;;;5053405;28;20478;-82
2023/03/28 11:41:47;;;;;;;7.33;2.83;;;22.30;45.50;;;;;;5049373;28;20551;-81
2023/03/28 11:44:17;;;;;;;8.37;2.60;;;22.20;45.40;;;;;;5051826;28;20446;-81
2023/03/28 11:46:51;;;;;;;3.70;2.40;;;22.20;45.50;;;;;;5054626;28;20477;-82
2023/03/28 11:49:21;;;;;;;7.73;3.87;;;22.20;45.50;;;;;;5061951;28;20458;-82
2023/03/28 11:51:56;;;;;;;3.57;3.10;;;23.40;48.10;;;;;;5053735;28;20475;-82
2023/03/28 11:54:27;;;;;;;8.30;3.97;;;24.20;42.90;;;;;;5043693;28;20458;-79
2023/03/28 11:56:56;;;;;;;9.13;3.63;;;23.90;42.50;;;;;;5043362;28;20434;-82
2023/03/28 11:59:26;;;;;;;4.80;3.07;;;23.60;42.70;;;;;;5048522;28;20769;-82
2023/03/28 12:01:56;;;;;;;7.73;2.83;;;23.40;43.00;;;;;;5050048;28;20437;-81
2023/03/28 12:04:27;;;;;;;3.80;2.60;;;23.10;43.20;;;;;;5049472;28;20459;-81
2023/03/28 12:07:05;;;;;;;6.73;2.80;;;22.90;43.50;;;;;;5050364;28;20538;-82
2023/03/28 12:09:36;;;;;;;4.80;2.83;;;22.90;43.70;;;;;;5045456;28;20457;-82
2023/03/28 12:12:06;;;;;;;7.87;3.30;;;22.80;43.60;;;;;;5050409;28;20454;-81
2023/03/28 12:14:37;;;;;;;7.33;2.80;;;22.90;43.70;;;;;;5049361;28;20422;-81
2023/03/28 12:17:13;;;;;;;5.20;2.60;;;22.80;43.50;;;;;;5047771;28;20445;-81
2023/03/28 12:19:41;;;;;;;4.50;2.70;;;22.80;43.60;;;;;;5045661;28;20421;-81
2023/03/28 12:22:14;;;;;;;6.87;2.90;;;22.70;43.40;;;;;;5042642;28;20533;-81
2023/03/28 12:24:45;;;;;;;6.27;2.47;;;22.60;43.40;;;;;;5050075;28;20544;-81
2023/03/28 12:27:17;;;;;;;4.77;2.50;;;22.50;43.50;;;;;;5048108;28;20541;-81
2023/03/28 12:29:47;;;;;;;13.90;3.00;;;22.40;43.60;;;;;;5051820;28;20435;-80
2023/03/28 12:32:37;;;;;;;5.63;2.70;;;22.30;43.60;;;;;;5044579;28;20447;-81
2023/03/28 12:35:11;;;;;;;4.33;2.50;;;22.20;43.50;;;;;;5046109;28;20478;-81
2023/03/28 12:37:42;;;;;;;6.60;2.67;;;22.10;43.50;;;;;;5050034;28;20573;-80
2023/03/28 12:40:19;;;;;;;5.23;2.47;;;22.10;43.50;;;;;;5051398;28;20451;-81
2023/03/28 12:42:47;;;;;;;7.20;2.80;;;22.00;43.30;;;;;;5048458;28;20450;-80
2023/03/28 12:45:16;;;;;;;4.07;2.20;;;22.10;43.50;;;;;;5052534;28;20489;-80
2023/03/28 12:47:45;;;;;;;4.87;2.43;;;22.10;43.30;;;;;;5050461;28;20487;-82
2023/03/28 12:50:14;;;;;;;6.47;2.57;;;22.10;43.20;;;;;;5054157;28;20458;-82
2023/03/28 12:52:45;;;;;;;3.90;2.40;;;22.10;42.90;;;;;;5047202;28;20473;-83
2023/03/28 12:55:52;;;;;;;6.10;2.10;;;22.10;42.90;;;;;;5050019;28;20443;-82
2023/03/28 12:58:24;;;;;;;5.50;2.30;;;22.00;42.80;;;;;;5034418;28;20558;-79
2023/03/28 13:01:16;;;;;;;5.03;2.10;;;22.00;42.80;;;;;;5049838;28;20805;-82
2023/03/28 13:03:50;;;;;;;3.10;2.00;;;22.00;42.80;;;;;;5046302;28;20425;-81
2023/03/28 13:06:22;;;;;;;5.17;2.50;;;22.10;42.90;;;;;;5048809;28;20476;-80